createdAt,value
2016-10-28T00:00:08.089Z,71.03
2016-10-28T00:01:06.795Z,71.12
2016-10-28T00:02:06.633Z,71.12
2016-10-28T00:03:06.601Z,71.03
2016-10-28T00:04:06.704Z,71.31
2016-10-28T00:05:06.980Z,70.93
2016-10-28T00:06:06.494Z,71.31
2016-10-28T00:07:06.967Z,71.8
2016-10-28T00:08:06.528Z,71.61
2016-10-28T00:09:06.462Z,71.8
2016-10-28T00:10:21.080Z,71.31
2016-10-28T00:11:06.805Z,70.84
2016-10-28T00:12:21.325Z,71.41
2016-10-28T00:13:06.434Z,71.31
2016-10-28T00:14:20.975Z,70.84
2016-10-28T00:15:06.298Z,71.31
2016-10-28T00:16:07.649Z,71.22
2016-10-28T00:17:06.209Z,70.74
2016-10-28T00:18:06.539Z,71.31
2016-10-28T00:19:06.208Z,71.31
2016-10-28T00:20:06.281Z,70.74
2016-10-28T00:21:06.210Z,71.03
2016-10-28T00:22:06.135Z,71.12
2016-10-28T00:23:06.088Z,71.7
2016-10-28T00:24:05.993Z,71.31
2016-10-28T00:25:06.173Z,71.8
2016-10-28T00:26:20.631Z,71.22
2016-10-28T00:27:06.644Z,71.8
2016-10-28T00:28:05.974Z,71.7
2016-10-28T00:29:06.254Z,71.22
2016-10-28T00:31:05.823Z,71.31
2016-10-28T00:32:06.149Z,70.93
2016-10-28T00:33:05.756Z,70.93
2016-10-28T00:34:06.202Z,71.8
2016-10-28T00:36:06.040Z,71.22
2016-10-28T00:37:05.621Z,71.31
2016-10-28T00:38:05.632Z,71.31
2016-10-28T00:39:05.649Z,71.31
2016-10-28T00:43:05.851Z,71.22
2016-10-28T00:44:06.046Z,71.31
2016-10-28T00:45:06.660Z,71.41
2016-10-28T00:46:05.389Z,72.08
2016-10-28T00:47:05.423Z,71.03
2016-10-28T00:48:20.030Z,71.22
2016-10-28T00:49:20.027Z,71.12
2016-10-28T00:50:05.287Z,70.93
2016-10-28T00:51:05.247Z,71.41
2016-10-28T00:52:05.221Z,71.31
2016-10-28T00:53:05.213Z,71.12
2016-10-28T00:54:06.067Z,71.51
2016-10-28T00:55:19.858Z,71.22
2016-10-28T00:56:05.534Z,71.12
2016-10-28T00:57:05.445Z,71.03
2016-10-28T00:59:05.773Z,71.31
2016-10-28T01:00:05.457Z,70.93
2016-10-28T01:01:04.997Z,70.93
2016-10-28T01:02:05.468Z,70.84
2016-10-28T01:03:05.417Z,71.12
2016-10-28T01:04:05.322Z,71.31
2016-10-28T01:05:05.199Z,71.31
2016-10-28T01:06:05.246Z,71.03
2016-10-28T01:07:19.512Z,71.03
2016-10-28T01:08:05.185Z,70.74
2016-10-28T01:09:04.771Z,70.36
2016-10-28T01:10:05.126Z,70.26
2016-10-28T01:11:06.468Z,71.12
2016-10-28T01:12:19.370Z,70.55
2016-10-28T01:13:04.753Z,70.45
2016-10-28T01:15:05.362Z,70.74
2016-10-28T01:16:04.582Z,70.55
2016-10-28T01:17:04.916Z,70.26
2016-10-28T01:18:04.936Z,70.74
2016-10-28T01:19:04.615Z,70.64
2016-10-28T01:20:05.102Z,71.31
2016-10-28T01:21:19.144Z,71.41
2016-10-28T01:22:04.470Z,71.22
2016-10-28T01:23:05.043Z,70.93
2016-10-28T01:24:05.303Z,71.41
2016-10-28T01:25:04.704Z,71.41
2016-10-28T01:26:04.692Z,71.22
2016-10-28T01:27:04.277Z,71.03
2016-10-28T01:28:18.954Z,71.12
2016-10-28T01:29:04.720Z,71.61
2016-10-28T01:30:04.205Z,71.8
2016-10-28T01:31:04.406Z,71.03
2016-10-28T01:32:05.441Z,71.61
2016-10-28T01:33:04.129Z,71.37
2016-10-28T01:34:04.109Z,70.93
2016-10-28T01:35:04.070Z,71.22
2016-10-28T01:36:04.476Z,71.89
2016-10-28T01:37:04.390Z,71.51
2016-10-28T01:38:04.430Z,71.31
2016-10-28T01:39:04.354Z,71.76
2016-10-28T01:40:04.490Z,71.7
2016-10-28T01:41:19.017Z,71.7
2016-10-28T01:42:18.562Z,71.51
2016-10-28T01:43:04.210Z,71.51
2016-10-28T01:44:04.208Z,71.12
2016-10-28T01:45:05.016Z,71.8
2016-10-28T01:46:04.444Z,71.51
2016-10-28T01:47:03.718Z,71.7
2016-10-28T01:48:03.908Z,71.61
2016-10-28T01:50:18.363Z,71.31
2016-10-28T01:51:04.377Z,71.22
2016-10-28T01:52:03.609Z,71.51
2016-10-28T01:53:18.607Z,71.7
2016-10-28T01:54:03.535Z,71.8
2016-10-28T01:56:03.485Z,71.12
2016-10-28T01:57:03.479Z,71.12
2016-10-28T01:58:03.494Z,71.12
2016-10-28T01:59:03.911Z,71.7
2016-10-28T02:00:03.622Z,71.7
2016-10-28T02:02:03.309Z,72.05
2016-10-28T02:03:03.862Z,72.24
2016-10-28T02:04:03.277Z,71.8
2016-10-28T02:05:03.334Z,71.98
2016-10-28T02:06:03.228Z,71.61
2016-10-28T02:07:17.987Z,71.95
2016-10-28T02:08:03.266Z,71.8
2016-10-28T02:09:03.211Z,71.8
2016-10-28T02:10:04.336Z,71.89
2016-10-28T02:11:03.070Z,72.28
2016-10-28T02:12:03.183Z,71.98
2016-10-28T02:13:03.551Z,71.7
2016-10-28T02:14:17.680Z,71.41
2016-10-28T02:15:02.971Z,71.51
2016-10-28T02:16:03.007Z,71.03
2016-10-28T02:17:02.919Z,71.31
2016-10-28T02:18:03.114Z,70.84
2016-10-28T02:19:02.881Z,71.7
2016-10-28T02:20:03.314Z,71.89
2016-10-28T02:21:02.847Z,71.98
2016-10-28T02:22:02.781Z,72.28
2016-10-28T02:23:02.823Z,71.98
2016-10-28T02:24:03.090Z,72.37
2016-10-28T02:25:04.019Z,71.98
2016-10-28T02:26:03.007Z,72.18
2016-10-28T02:27:02.655Z,72.08
2016-10-28T02:28:17.324Z,71.89
2016-10-28T02:29:02.585Z,71.98
2016-10-28T02:30:02.956Z,71.7
2016-10-28T02:31:17.236Z,71.41
2016-10-28T02:32:17.198Z,71.8
2016-10-28T02:33:17.175Z,71.61
2016-10-28T02:34:02.554Z,71.61
2016-10-28T02:35:02.570Z,71.61
2016-10-28T02:36:04.725Z,71.7
2016-10-28T02:37:02.750Z,71.8
2016-10-28T02:38:02.460Z,71.7
2016-10-28T02:39:02.376Z,71.61
2016-10-28T02:40:02.298Z,71.41
2016-10-28T02:41:02.955Z,71.41
2016-10-28T02:42:02.441Z,71.41
2016-10-28T02:43:03.206Z,71.89
2016-10-28T02:44:02.168Z,71.89
2016-10-28T02:45:16.847Z,72.47
2016-10-28T02:46:02.898Z,72.28
2016-10-28T02:47:02.985Z,71.7
2016-10-28T02:48:02.395Z,72.08
2016-10-28T02:49:02.070Z,71.41
2016-10-28T02:50:02.450Z,71.89
2016-10-28T02:51:02.164Z,71.41
2016-10-28T02:52:01.994Z,72.08
2016-10-28T02:53:02.010Z,71.61
2016-10-28T02:54:01.909Z,71.98
2016-10-28T02:55:01.890Z,71.22
2016-10-28T02:56:01.885Z,71.12
2016-10-28T02:57:16.529Z,71.61
2016-10-28T02:58:01.815Z,71.8
2016-10-28T02:59:01.782Z,71.89
2016-10-28T03:00:02.395Z,71.98
2016-10-28T03:01:01.721Z,71.89
2016-10-28T03:02:16.392Z,71.22
2016-10-28T03:03:02.046Z,71.22
2016-10-28T03:04:02.192Z,71.41
2016-10-28T03:05:02.085Z,71.31
2016-10-28T03:07:01.937Z,71.31
2016-10-28T03:08:01.553Z,71.22
2016-10-28T03:10:01.971Z,71.22
2016-10-28T03:11:01.469Z,71.12
2016-10-28T03:12:01.634Z,70.84
2016-10-28T03:13:01.777Z,71.31
2016-10-28T03:14:02.121Z,71.41
2016-10-28T03:15:01.341Z,71.41
2016-10-28T03:16:16.354Z,71.03
2016-10-28T03:17:01.365Z,70.84
2016-10-28T03:18:01.267Z,71.22
2016-10-28T03:19:01.629Z,71.31
2016-10-28T03:20:02.251Z,71.7
2016-10-28T03:21:01.234Z,71.03
2016-10-28T03:22:01.719Z,71.31
2016-10-28T03:23:01.505Z,71.12
2016-10-28T03:24:02.183Z,71.61
2016-10-28T03:27:15.704Z,71.61
2016-10-28T03:28:00.983Z,71.61
2016-10-28T03:29:01.132Z,70.84
2016-10-28T03:30:01.027Z,71.31
2016-10-28T03:31:00.906Z,71.22
2016-10-28T03:32:00.879Z,71.7
2016-10-28T03:34:01.156Z,71.22
2016-10-28T03:35:01.255Z,71.98
2016-10-28T03:36:01.245Z,71.76
2016-10-28T03:37:00.997Z,71.31
2016-10-28T03:38:01.504Z,70.84
2016-10-28T03:39:00.689Z,71.31
2016-10-28T03:40:00.685Z,71.31
2016-10-28T03:41:15.342Z,70.84
2016-10-28T03:42:15.300Z,71.31
2016-10-28T03:43:00.661Z,71.22
2016-10-28T03:44:00.955Z,71.31
2016-10-28T03:45:03.944Z,71.61
2016-10-28T03:46:00.923Z,71.22
2016-10-28T03:47:00.642Z,71.12
2016-10-28T03:48:00.833Z,70.93
2016-10-28T03:49:00.438Z,71.03
2016-10-28T03:50:00.699Z,71.12
2016-10-28T03:51:00.445Z,70.84
2016-10-28T03:52:00.716Z,71.41
2016-10-28T03:53:00.372Z,71.12
2016-10-28T03:54:00.772Z,70.26
2016-10-28T03:55:00.298Z,70.45
2016-10-28T03:56:00.690Z,70.64
2016-10-28T03:57:00.309Z,70.45
2016-10-28T03:58:00.236Z,70.74
2016-10-28T03:59:00.246Z,70.26
2016-10-28T04:00:00.569Z,70.93
2016-10-28T04:01:00.508Z,71.61
2016-10-28T04:02:00.121Z,70.45
2016-10-28T04:03:00.668Z,70.74
2016-10-28T04:04:00.254Z,70.64
2016-10-28T04:05:00.612Z,70.17
2016-10-28T04:05:59.962Z,70.36
2016-10-28T04:06:59.973Z,70.74
2016-10-28T04:07:59.972Z,70.26
2016-10-28T04:09:00.463Z,70.36
2016-10-28T04:09:59.850Z,70.26
2016-10-28T04:11:00.255Z,70.17
2016-10-28T04:11:59.805Z,70.36
2016-10-28T04:12:59.819Z,70.07
2016-10-28T04:14:00.197Z,70.17
2016-10-28T04:15:01.445Z,69.78
2016-10-28T04:15:59.763Z,69.87
2016-10-28T04:17:00.066Z,70.07
2016-10-28T04:17:59.702Z,69.49
2016-10-28T04:19:14.309Z,69.68
2016-10-28T04:20:00.084Z,69.87
2016-10-28T04:21:00.563Z,69.68
2016-10-28T04:21:59.524Z,69.65
2016-10-28T04:23:14.182Z,69.78
2016-10-28T04:25:14.139Z,69.3
2016-10-28T04:26:14.226Z,69.87
2016-10-28T04:26:59.672Z,69.59
2016-10-28T04:27:59.415Z,69.78
2016-10-28T04:28:59.379Z,69.97
2016-10-28T04:29:59.709Z,70.36
2016-10-28T04:30:59.473Z,70.36
2016-10-28T04:32:14.036Z,70.36
2016-10-28T04:32:59.212Z,70.51
2016-10-28T04:34:59.262Z,70.13
2016-10-28T04:35:59.205Z,70.26
2016-10-28T04:36:59.477Z,69.56
2016-10-28T04:37:59.469Z,69.78
2016-10-28T04:38:59.806Z,70.07
2016-10-28T04:39:59.491Z,70.07
2016-10-28T04:40:59.014Z,70.07
2016-10-28T04:41:59.235Z,69.3
2016-10-28T04:42:59.005Z,68.82
2016-10-28T04:43:59.724Z,69.3
